Terminal Aerodrome Forecast
Issued by NWS Omaha/Valley, NE

Home | Current Version | Previous Version | Text Only | Print | Product List | Glossary On
Versions: 1 2 3 4 5 6 7 8 9 10 11 12 13 14 15 16 17 18 19 20 21 22 23 24 25 26 27 28
000
FTUS43 KOAX 250211 AAB
TAFOFK
TAF AMD
KOFK 250211Z 2502/2524 04012KT 4SM BR OVC007
      TEMPO 2502/2504 2SM -FZDZ BR
     FM250400 02013KT 4SM BR OVC008
     FM250600 34015KT 3SM -SN BLSN OVC008
     FM250900 34016G24KT 1 1/2SM -SN BLSN OVC008
     FM251100 33017G25KT 2SM -SN BLSN OVC010
     FM251400 32019G27KT 3SM -SN BLSN OVC015
     FM251800 32019G27KT P6SM OVC010=

USA.gov is the U.S. government's official web portal to all federal, state and local government web resources and services.